sensor_id;sensor_type;location;lat;lon;timestamp;pressure;altitude;pressure_sealevel;temperature
75431;BMP280;64127;51.488;5.462;2023-04-01T00:00:32;98979.34;;;12.21
75431;BMP280;64127;51.488;5.462;2023-04-01T00:03:04;98968.81;;;12.16
75431;BMP280;64127;51.488;5.462;2023-04-01T00:05:37;98971.44;;;12.10
75431;BMP280;64127;51.488;5.462;2023-04-01T00:08:09;98968.78;;;12.09
75431;BMP280;64127;51.488;5.462;2023-04-01T00:10:42;98974.94;;;12.09
75431;BMP280;64127;51.488;5.462;2023-04-01T00:13:14;98974.94;;;12.12
75431;BMP280;64127;51.488;5.462;2023-04-01T00:15:47;98982.84;;;12.17
75431;BMP280;64127;51.488;5.462;2023-04-01T00:18:19;98974.09;;;12.15
75431;BMP280;64127;51.488;5.462;2023-04-01T00:20:52;98980.22;;;12.15
75431;BMP280;64127;51.488;5.462;2023-04-01T00:23:26;98978.44;;;12.16
75431;BMP280;64127;51.488;5.462;2023-04-01T00:26:01;98977.59;;;12.14
75431;BMP280;64127;51.488;5.462;2023-04-01T00:28:34;98981.97;;;12.18
75431;BMP280;64127;51.488;5.462;2023-04-01T00:31:08;98985.47;;;12.20
75431;BMP280;64127;51.488;5.462;2023-04-01T00:33:40;98971.44;;;12.10
75431;BMP280;64127;51.488;5.462;2023-04-01T00:36:18;98985.44;;;12.12
75431;BMP280;64127;51.488;5.462;2023-04-01T00:38:50;98984.59;;;12.15
75431;BMP280;64127;51.488;5.462;2023-04-01T00:41:23;98994.19;;;12.13
75431;BMP280;64127;51.488;5.462;2023-04-01T00:44:20;99003.81;;;12.08
75431;BMP280;64127;51.488;5.462;2023-04-01T00:46:52;98991.56;;;12.13
75431;BMP280;64127;51.488;5.462;2023-04-01T00:49:39;98999.44;;;12.13
75431;BMP280;64127;51.488;5.462;2023-04-01T00:52:17;98995.94;;;12.12
75431;BMP280;64127;51.488;5.462;2023-04-01T00:54:56;99006.47;;;12.17
75431;BMP280;64127;51.488;5.462;2023-04-01T00:57:35;98993.31;;;12.12
75431;BMP280;64127;51.488;5.462;2023-04-01T01:00:11;99010.84;;;12.15
75431;BMP280;64127;51.488;5.462;2023-04-01T01:02:46;99005.59;;;12.12
75431;BMP280;64127;51.488;5.462;2023-04-01T01:05:36;99009.91;;;12.04
75431;BMP280;64127;51.488;5.462;2023-04-01T01:11:37;99026.56;;;12.09
75431;BMP280;64127;51.488;5.462;2023-04-01T01:27:00;99031.81;;;12.07
75431;BMP280;64127;51.488;5.462;2023-04-01T01:32:19;99016.97;;;12.17
75431;BMP280;64127;51.488;5.462;2023-04-01T01:37:38;99017.84;;;12.16
75431;BMP280;64127;51.488;5.462;2023-04-01T01:40:13;99030.09;;;12.17
75431;BMP280;64127;51.488;5.462;2023-04-01T01:42:54;99022.19;;;12.12
75431;BMP280;64127;51.488;5.462;2023-04-01T01:45:29;99033.59;;;12.16
75431;BMP280;64127;51.488;5.462;2023-04-01T01:48:05;99033.59;;;12.16
75431;BMP280;64127;51.488;5.462;2023-04-01T01:50:41;99036.19;;;12.13
75431;BMP280;64127;51.488;5.462;2023-04-01T01:53:14;99033.56;;;12.10
75431;BMP280;64127;51.488;5.462;2023-04-01T01:55:47;99001.09;;;11.90
75431;BMP280;64127;51.488;5.462;2023-04-01T01:58:36;99053.69;;;12.12
75431;BMP280;64127;51.488;5.462;2023-04-01T02:01:18;99051.97;;;12.14
75431;BMP280;64127;51.488;5.462;2023-04-01T02:03:52;99051.97;;;12.08
75431;BMP280;64127;51.488;5.462;2023-04-01T02:06:29;99056.34;;;12.14
75431;BMP280;64127;51.488;5.462;2023-04-01T02:09:08;99052.84;;;12.12
75431;BMP280;64127;51.488;5.462;2023-04-01T02:11:47;99056.34;;;12.14
75431;BMP280;64127;51.488;5.462;2023-04-01T02:14:28;99044.94;;;12.04
75431;BMP280;64127;51.488;5.462;2023-04-01T02:17:11;99057.22;;;12.08
75431;BMP280;64127;51.488;5.462;2023-04-01T02:19:57;99058.94;;;12.08
75431;BMP280;64127;51.488;5.462;2023-04-01T02:22:39;99068.56;;;12.07
75431;BMP280;64127;51.488;5.462;2023-04-01T02:25:20;99069.44;;;12.06
75431;BMP280;64127;51.488;5.462;2023-04-01T02:27:56;99064.19;;;12.09
75431;BMP280;64127;51.488;5.462;2023-04-01T02:30:32;99068.56;;;12.09
75431;BMP280;64127;51.488;5.462;2023-04-01T02:33:06;99054.53;;;11.98
75431;BMP280;64127;51.488;5.462;2023-04-01T02:35:38;99062.44;;;12.04
75431;BMP280;64127;51.488;5.462;2023-04-01T02:38:10;99065.91;;;12.03
75431;BMP280;64127;51.488;5.462;2023-04-01T02:40:56;99065.06;;;12.04
75431;BMP280;64127;51.488;5.462;2023-04-01T02:43:28;99073.78;;;12.06
75431;BMP280;64127;51.488;5.462;2023-04-01T02:46:00;99067.69;;;12.05
75431;BMP280;64127;51.488;5.462;2023-04-01T02:48:33;99073.78;;;12.06
75431;BMP280;64127;51.488;5.462;2023-04-01T02:51:06;99071.16;;;12.06
75431;BMP280;64127;51.488;5.462;2023-04-01T02:53:38;99076.44;;;12.04
75431;BMP280;64127;51.488;5.462;2023-04-01T02:56:10;99068.53;;;12.03
75431;BMP280;64127;51.488;5.462;2023-04-01T02:58:42;99082.56;;;12.02
75431;BMP280;64127;51.488;5.462;2023-04-01T03:01:14;99077.28;;;12.00
75431;BMP280;64127;51.488;5.462;2023-04-01T03:03:46;99080.78;;;12.01
75431;BMP280;64127;51.488;5.462;2023-04-01T03:06:18;99054.41;;;11.77
75431;BMP280;64127;51.488;5.462;2023-04-01T03:08:50;99086.03;;;11.98
75431;BMP280;64127;51.488;5.462;2023-04-01T03:11:22;99085.09;;;11.93
75431;BMP280;64127;51.488;5.462;2023-04-01T03:13:54;99105.25;;;11.94
75431;BMP280;64127;51.488;5.462;2023-04-01T03:16:26;99098.22;;;11.90
75431;BMP280;64127;51.488;5.462;2023-04-01T03:18:58;99096.47;;;11.92
75431;BMP280;64127;51.488;5.462;2023-04-01T03:21:33;99091.22;;;11.92
75431;BMP280;64127;51.488;5.462;2023-04-01T03:24:05;99089.50;;;11.94
75431;BMP280;64127;51.488;5.462;2023-04-01T03:26:38;99100.00;;;11.94
75431;BMP280;64127;51.488;5.462;2023-04-01T03:29:09;99106.13;;;11.94
75431;BMP280;64127;51.488;5.462;2023-04-01T03:31:42;99102.63;;;11.94
75431;BMP280;64127;51.488;5.462;2023-04-01T03:34:14;99098.19;;;11.84
75431;BMP280;64127;51.488;5.462;2023-04-01T03:36:46;99070.91;;;11.66
75431;BMP280;64127;51.488;5.462;2023-04-01T03:39:18;99106.09;;;11.88
75431;BMP280;64127;51.488;5.462;2023-04-01T03:41:50;99113.09;;;11.88
75431;BMP280;64127;51.488;5.462;2023-04-01T03:44:22;99121.81;;;11.87
75431;BMP280;64127;51.488;5.462;2023-04-01T03:46:54;99120.03;;;11.83
75431;BMP280;64127;51.488;5.462;2023-04-01T03:49:27;99080.47;;;11.61
75431;BMP280;64127;51.488;5.462;2023-04-01T03:51:59;99113.91;;;11.84
75431;BMP280;64127;51.488;5.462;2023-04-01T03:54:31;99127.03;;;11.85
75431;BMP280;64127;51.488;5.462;2023-04-01T03:57:04;99127.06;;;11.87
75431;BMP280;64127;51.488;5.462;2023-04-01T03:59:36;99127.94;;;11.89
75431;BMP280;64127;51.488;5.462;2023-04-01T04:02:08;99131.47;;;11.91
75431;BMP280;64127;51.488;5.462;2023-04-01T04:04:40;99113.91;;;11.81
75431;BMP280;64127;51.488;5.462;2023-04-01T04:07:13;99129.72;;;11.91
75431;BMP280;64127;51.488;5.462;2023-04-01T04:09:45;99125.34;;;11.90
75431;BMP280;64127;51.488;5.462;2023-04-01T04:12:17;99132.34;;;11.88
75431;BMP280;64127;51.488;5.462;2023-04-01T04:14:49;99140.19;;;11.87
75431;BMP280;64127;51.488;5.462;2023-04-01T04:17:21;99134.91;;;11.84
75431;BMP280;64127;51.488;5.462;2023-04-01T04:19:53;99141.94;;;11.85
75431;BMP280;64127;51.488;5.462;2023-04-01T04:22:25;99137.53;;;11.81
75431;BMP280;64127;51.488;5.462;2023-04-01T04:24:57;99145.38;;;11.79
75431;BMP280;64127;51.488;5.462;2023-04-01T04:27:29;99133.97;;;11.74
75431;BMP280;64127;51.488;5.462;2023-04-01T04:30:02;99152.38;;;11.80
75431;BMP280;64127;51.488;5.462;2023-04-01T04:32:34;99154.16;;;11.83
75431;BMP280;64127;51.488;5.462;2023-04-01T04:35:07;99146.22;;;11.77
75431;BMP280;64127;51.488;5.462;2023-04-01T04:37:39;99147.94;;;11.73
75431;BMP280;64127;51.488;5.462;2023-04-01T04:40:11;99168.06;;;11.73
75431;BMP280;64127;51.488;5.462;2023-04-01T04:42:43;99143.41;;;11.58
75431;BMP280;64127;51.488;5.462;2023-04-01T04:45:16;99164.59;;;11.74
75431;BMP280;64127;51.488;5.462;2023-04-01T04:47:48;99132.84;;;11.51
75431;BMP280;64127;51.488;5.462;2023-04-01T04:50:20;99159.19;;;11.61
75431;BMP280;64127;51.488;5.462;2023-04-01T04:52:53;99179.38;;;11.70
75431;BMP280;64127;51.488;5.462;2023-04-01T04:55:25;99171.47;;;11.68
75431;BMP280;64127;51.488;5.462;2023-04-01T04:57:57;99178.47;;;11.66
75431;BMP280;64127;51.488;5.462;2023-04-01T05:00:29;99182.88;;;11.67
75431;BMP280;64127;51.488;5.462;2023-04-01T05:03:01;99187.22;;;11.67
75431;BMP280;64127;51.488;5.462;2023-04-01T05:05:33;99172.28;;;11.58
75431;BMP280;64127;51.488;5.462;2023-04-01T05:08:06;99186.31;;;11.63
75431;BMP280;64127;51.488;5.462;2023-04-01T05:10:38;99181.88;;;11.53
75431;BMP280;64127;51.488;5.462;2023-04-01T05:13:10;99202.00;;;11.59
75431;BMP280;64127;51.488;5.462;2023-04-01T05:15:42;99164.25;;;11.40
75431;BMP280;64127;51.488;5.462;2023-04-01T05:18:14;99199.41;;;11.60
75431;BMP280;64127;51.488;5.462;2023-04-01T05:20:54;99206.41;;;11.60
75431;BMP280;64127;51.488;5.462;2023-04-01T05:23:26;99209.03;;;11.60
75431;BMP280;64127;51.488;5.462;2023-04-01T05:26:02;99204.56;;;11.51
75431;BMP280;64127;51.488;5.462;2023-04-01T05:28:34;99208.09;;;11.53
75431;BMP280;64127;51.488;5.462;2023-04-01T05:31:07;99215.97;;;11.55
75431;BMP280;64127;51.488;5.462;2023-04-01T05:33:40;99224.75;;;11.57
75431;BMP280;64127;51.488;5.462;2023-04-01T05:36:15;99229.97;;;11.58
75431;BMP280;64127;51.488;5.462;2023-04-01T05:38:47;99216.81;;;11.52
75431;BMP280;64127;51.488;5.462;2023-04-01T05:41:19;99230.91;;;11.60
75431;BMP280;64127;51.488;5.462;2023-04-01T05:43:51;99240.53;;;11.63
75431;BMP280;64127;51.488;5.462;2023-04-01T05:46:23;99244.03;;;11.63
75431;BMP280;64127;51.488;5.462;2023-04-01T05:48:55;99243.09;;;11.58
75431;BMP280;64127;51.488;5.462;2023-04-01T05:51:27;99252.75;;;11.62
75431;BMP280;64127;51.488;5.462;2023-04-01T05:53:59;99253.66;;;11.64
75431;BMP280;64127;51.488;5.462;2023-04-01T05:56:31;99261.56;;;11.66
75431;BMP280;64127;51.488;5.462;2023-04-01T05:59:03;99261.53;;;11.63
75431;BMP280;64127;51.488;5.462;2023-04-01T06:01:35;99270.25;;;11.60
75431;BMP280;64127;51.488;5.462;2023-04-01T06:04:14;99271.09;;;11.59
75431;BMP280;64127;51.488;5.462;2023-04-01T06:06:47;99274.59;;;11.61
75431;BMP280;64127;51.488;5.462;2023-04-01T06:09:27;99243.78;;;11.41
75431;BMP280;64127;51.488;5.462;2023-04-01T06:12:25;99282.50;;;11.63
75431;BMP280;64127;51.488;5.462;2023-04-01T06:15:47;99291.22;;;11.62
75431;BMP280;64127;51.488;5.462;2023-04-01T06:47:11;99325.41;;;11.66
75431;BMP280;64127;51.488;5.462;2023-04-01T06:55:57;99337.66;;;11.67
75431;BMP280;64127;51.488;5.462;2023-04-01T06:58:42;99339.47;;;11.72
75431;BMP280;64127;51.488;5.462;2023-04-01T07:01:29;99342.09;;;11.72
75431;BMP280;64127;51.488;5.462;2023-04-01T07:04:15;99349.16;;;11.74
75431;BMP280;64127;51.488;5.462;2023-04-01T07:06:56;99350.09;;;11.81
75431;BMP280;64127;51.488;5.462;2023-04-01T07:09:38;99358.94;;;11.90
75431;BMP280;64127;51.488;5.462;2023-04-01T07:15:33;99359.81;;;11.91
75431;BMP280;64127;51.488;5.462;2023-04-01T07:18:23;99359.84;;;11.94
75431;BMP280;64127;51.488;5.462;2023-04-01T07:21:01;99370.41;;;11.98
75431;BMP280;64127;51.488;5.462;2023-04-01T07:23:42;99351.88;;;11.86
75431;BMP280;64127;51.488;5.462;2023-04-01T07:26:23;99382.72;;;12.04
75431;BMP280;64127;51.488;5.462;2023-04-01T07:28:57;99385.38;;;12.05
75431;BMP280;64127;51.488;5.462;2023-04-01T07:32:05;99384.47;;;12.02
75431;BMP280;64127;51.488;5.462;2023-04-01T07:40:49;99390.63;;;12.07
75431;BMP280;64127;51.488;5.462;2023-04-01T07:56:05;99420.44;;;12.12
75431;BMP280;64127;51.488;5.462;2023-04-01T08:04:55;99414.25;;;12.07
75431;BMP280;64127;51.488;5.462;2023-04-01T08:07:50;99434.47;;;12.14
75431;BMP280;64127;51.488;5.462;2023-04-01T08:10:52;99437.03;;;12.08
75431;BMP280;64127;51.488;5.462;2023-04-01T08:13:48;99408.00;;;11.96
75431;BMP280;64127;51.488;5.462;2023-04-01T08:20:20;99462.66;;;12.30
75431;BMP280;64127;51.488;5.462;2023-04-01T08:23:43;99457.50;;;12.39
75431;BMP280;64127;51.488;5.462;2023-04-01T08:29:06;99467.31;;;12.55
75431;BMP280;64127;51.488;5.462;2023-04-01T08:31:50;99468.19;;;12.57
75431;BMP280;64127;51.488;5.462;2023-04-01T08:34:35;99462.00;;;12.51
75431;BMP280;64127;51.488;5.462;2023-04-01T08:37:18;99464.66;;;12.55
75431;BMP280;64127;51.488;5.462;2023-04-01T08:40:13;99476.03;;;12.54
75431;BMP280;64127;51.488;5.462;2023-04-01T08:43:09;99479.50;;;12.50
75431;BMP280;64127;51.488;5.462;2023-04-01T08:55:16;99494.44;;;12.54
75431;BMP280;64127;51.488;5.462;2023-04-01T09:01:20;99518.13;;;12.56
75431;BMP280;64127;51.488;5.462;2023-04-01T09:04:23;99508.47;;;12.53
75431;BMP280;64127;51.488;5.462;2023-04-01T09:22:51;99535.84;;;12.77
75431;BMP280;64127;51.488;5.462;2023-04-01T09:40:48;99518.91;;;12.50
75431;BMP280;64127;51.488;5.462;2023-04-01T10:03:19;99584.72;;;12.61
75431;BMP280;64127;51.488;5.462;2023-04-01T10:35:28;99611.97;;;12.67
75431;BMP280;64127;51.488;5.462;2023-04-01T10:44:30;99619.81;;;12.63
75431;BMP280;64127;51.488;5.462;2023-04-01T10:47:52;99629.41;;;12.59
75431;BMP280;64127;51.488;5.462;2023-04-01T10:56:58;99625.81;;;12.54
75431;BMP280;64127;51.488;5.462;2023-04-01T11:19:02;99652.13;;;12.57
75431;BMP280;64127;51.488;5.462;2023-04-01T11:25:47;99657.44;;;12.60
75431;BMP280;64127;51.488;5.462;2023-04-01T11:28:26;99653.06;;;12.59
75431;BMP280;64127;51.488;5.462;2023-04-01T11:40:25;99671.53;;;12.65
75431;BMP280;64127;51.488;5.462;2023-04-01T11:43:32;99660.91;;;12.56
75431;BMP280;64127;51.488;5.462;2023-04-01T11:46:37;99675.94;;;12.68
75431;BMP280;64127;51.488;5.462;2023-04-01T11:56:02;99682.19;;;12.78
75431;BMP280;64127;51.488;5.462;2023-04-01T12:05:35;99704.09;;;12.78
75431;BMP280;64127;51.488;5.462;2023-04-01T12:17:49;99712.81;;;12.73
75431;BMP280;64127;51.488;5.462;2023-04-01T12:26:22;99703.09;;;12.68
75431;BMP280;64127;51.488;5.462;2023-04-01T12:30:01;99722.50;;;12.77
75431;BMP280;64127;51.488;5.462;2023-04-01T12:53:53;99757.63;;;12.80
75431;BMP280;64127;51.488;5.462;2023-04-01T13:02:35;99760.28;;;12.85
75431;BMP280;64127;51.488;5.462;2023-04-01T13:05:31;99762.09;;;12.87
75431;BMP280;64127;51.488;5.462;2023-04-01T13:11:34;99766.53;;;12.93
75431;BMP280;64127;51.488;5.462;2023-04-01T13:14:49;99771.88;;;12.99
75431;BMP280;64127;51.488;5.462;2023-04-01T13:17:58;99777.22;;;13.05
75431;BMP280;64127;51.488;5.462;2023-04-01T13:39:29;99788.50;;;12.96
75431;BMP280;64127;51.488;5.462;2023-04-01T13:44:43;99802.47;;;12.92
75431;BMP280;64127;51.488;5.462;2023-04-01T13:58:49;99800.66;;;12.87
75431;BMP280;64127;51.488;5.462;2023-04-01T14:01:46;99817.28;;;12.86
75431;BMP280;64127;51.488;5.462;2023-04-01T14:04:49;99797.78;;;12.71
75431;BMP280;64127;51.488;5.462;2023-04-01T14:10:35;99831.28;;;12.85
75431;BMP280;64127;51.488;5.462;2023-04-01T14:16:55;99832.03;;;12.78
75431;BMP280;64127;51.488;5.462;2023-04-01T14:20:29;99835.59;;;12.80
75431;BMP280;64127;51.488;5.462;2023-04-01T14:26:13;99843.47;;;12.80
75431;BMP280;64127;51.488;5.462;2023-04-01T14:29:02;99859.34;;;12.86
75431;BMP280;64127;51.488;5.462;2023-04-01T14:32:45;99853.16;;;12.82
75431;BMP280;64127;51.488;5.462;2023-04-01T14:47:43;99861.94;;;12.83
75431;BMP280;64127;51.488;5.462;2023-04-01T14:50:22;99869.06;;;12.90
75431;BMP280;64127;51.488;5.462;2023-04-01T14:58:19;99872.69;;;12.98
75431;BMP280;64127;51.488;5.462;2023-04-01T15:03:55;99877.00;;;12.93
75431;BMP280;64127;51.488;5.462;2023-04-01T15:09:55;99893.66;;;12.93
75431;BMP280;64127;51.488;5.462;2023-04-01T15:13:03;99886.63;;;12.91
75431;BMP280;64127;51.488;5.462;2023-04-01T15:16:16;99893.63;;;12.92
75431;BMP280;64127;51.488;5.462;2023-04-01T15:19:31;99897.97;;;12.90
75431;BMP280;64127;51.488;5.462;2023-04-01T15:28:37;99892.50;;;12.78
75431;BMP280;64127;51.488;5.462;2023-04-01T15:34:35;99913.66;;;12.84
75431;BMP280;64127;51.488;5.462;2023-04-01T15:43:14;99930.16;;;12.74
75431;BMP280;64127;51.488;5.462;2023-04-01T15:55:31;99917.81;;;12.71
75431;BMP280;64127;51.488;5.462;2023-04-01T16:07:52;99952.94;;;12.75
75431;BMP280;64127;51.488;5.462;2023-04-01T16:10:49;99952.13;;;12.79
75431;BMP280;64127;51.488;5.462;2023-04-01T16:22:35;99962.59;;;12.76
75431;BMP280;64127;51.488;5.462;2023-04-01T16:25:38;99963.44;;;12.73
75431;BMP280;64127;51.488;5.462;2023-04-01T16:31:25;99968.66;;;12.71
75431;BMP280;64127;51.488;5.462;2023-04-01T16:34:13;99964.38;;;12.77
75431;BMP280;64127;51.488;5.462;2023-04-01T16:36:55;99972.22;;;12.75
75431;BMP280;64127;51.488;5.462;2023-04-01T16:45:33;99978.22;;;12.66
75431;BMP280;64127;51.488;5.462;2023-04-01T16:50:59;99977.47;;;12.74
75431;BMP280;64127;51.488;5.462;2023-04-01T16:53:48;99989.00;;;12.82
75431;BMP280;64127;51.488;5.462;2023-04-01T16:56:39;100001.41;;;12.89
75431;BMP280;64127;51.488;5.462;2023-04-01T16:59:24;99996.97;;;12.86
75431;BMP280;64127;51.488;5.462;2023-04-01T17:13:28;100024.09;;;12.84
75431;BMP280;64127;51.488;5.462;2023-04-01T17:16:28;100027.69;;;12.87
75431;BMP280;64127;51.488;5.462;2023-04-01T17:22:37;100030.38;;;12.90
75431;BMP280;64127;51.488;5.462;2023-04-01T17:25:32;100039.16;;;12.92
75431;BMP280;64127;51.488;5.462;2023-04-01T17:34:15;100059.53;;;13.04
75431;BMP280;64127;51.488;5.462;2023-04-01T17:37:11;100050.78;;;13.05
75431;BMP280;64127;51.488;5.462;2023-04-01T17:40:04;100063.16;;;13.09
75431;BMP280;64127;51.488;5.462;2023-04-01T17:45:45;100078.19;;;13.14
75431;BMP280;64127;51.488;5.462;2023-04-01T17:51:56;100098.34;;;13.14
75431;BMP280;64127;51.488;5.462;2023-04-01T17:54:49;100099.28;;;13.19
75431;BMP280;64127;51.488;5.462;2023-04-01T18:01:42;100068.47;;;13.10
75431;BMP280;64127;51.488;5.462;2023-04-01T18:21:58;100158.38;;;13.36
75431;BMP280;64127;51.488;5.462;2023-04-01T18:27:33;100162.75;;;13.34
75431;BMP280;64127;51.488;5.462;2023-04-01T18:30:29;100170.69;;;13.37
75431;BMP280;64127;51.488;5.462;2023-04-01T18:33:23;100182.13;;;13.39
75431;BMP280;64127;51.488;5.462;2023-04-01T18:36:33;100186.47;;;13.37
75431;BMP280;64127;51.488;5.462;2023-04-01T18:39:11;100201.47;;;13.41
75431;BMP280;64127;51.488;5.462;2023-04-01T18:42:03;100204.91;;;13.37
75431;BMP280;64127;51.488;5.462;2023-04-01T18:44:51;100210.13;;;13.36
75431;BMP280;64127;51.488;5.462;2023-04-01T18:47:38;100219.66;;;13.29
75431;BMP280;64127;51.488;5.462;2023-04-01T18:50:47;100222.22;;;13.25
75431;BMP280;64127;51.488;5.462;2023-04-01T18:56:13;100245.78;;;13.20
75431;BMP280;64127;51.488;5.462;2023-04-01T18:59:00;100251.00;;;13.17
75431;BMP280;64127;51.488;5.462;2023-04-01T19:02:00;100256.13;;;13.11
75431;BMP280;64127;51.488;5.462;2023-04-01T19:04:45;100266.72;;;13.14
75431;BMP280;64127;51.488;5.462;2023-04-01T19:07:46;100272.88;;;13.14
75431;BMP280;64127;51.488;5.462;2023-04-01T19:10:37;100281.69;;;13.16
75431;BMP280;64127;51.488;5.462;2023-04-01T19:16:37;100294.88;;;13.18
75431;BMP280;64127;51.488;5.462;2023-04-01T19:22:44;100313.94;;;13.08
75431;BMP280;64127;51.488;5.462;2023-04-01T19:25:55;100301.50;;;13.02
75431;BMP280;64127;51.488;5.462;2023-04-01T19:28:58;100324.34;;;13.05
75431;BMP280;64127;51.488;5.462;2023-04-01T19:34:59;100330.44;;;13.02
75431;BMP280;64127;51.488;5.462;2023-04-01T19:46:49;100347.00;;;12.98
75431;BMP280;64127;51.488;5.462;2023-04-01T19:52:40;100363.59;;;12.94
75431;BMP280;64127;51.488;5.462;2023-04-01T19:55:47;100368.81;;;12.93
75431;BMP280;64127;51.488;5.462;2023-04-01T19:58:43;100338.41;;;12.68
75431;BMP280;64127;51.488;5.462;2023-04-01T20:01:48;100374.78;;;12.86
75431;BMP280;64127;51.488;5.462;2023-04-01T20:10:21;100396.38;;;12.73
75431;BMP280;64127;51.488;5.462;2023-04-01T20:13:12;100365.22;;;12.53
75431;BMP280;64127;51.488;5.462;2023-04-01T20:15:57;100393.53;;;12.63
75431;BMP280;64127;51.488;5.462;2023-04-01T20:18:48;100422.88;;;12.82
75431;BMP280;64127;51.488;5.462;2023-04-01T20:21:48;100430.75;;;12.80
75431;BMP280;64127;51.488;5.462;2023-04-01T20:30:12;100445.28;;;12.66
75431;BMP280;64127;51.488;5.462;2023-04-01T20:45:48;100479.19;;;12.57
75431;BMP280;64127;51.488;5.462;2023-04-01T20:49:01;100486.38;;;12.62
75431;BMP280;64127;51.488;5.462;2023-04-01T20:51:57;100492.72;;;12.70
75431;BMP280;64127;51.488;5.462;2023-04-01T20:54:56;100501.50;;;12.71
75431;BMP280;64127;51.488;5.462;2023-04-01T21:00:36;100500.22;;;12.55
75431;BMP280;64127;51.488;5.462;2023-04-01T21:03:45;100517.69;;;12.53
75431;BMP280;64127;51.488;5.462;2023-04-01T21:17:56;100540.22;;;12.45
75431;BMP280;64127;51.488;5.462;2023-04-01T21:48:12;100615.09;;;12.30
75431;BMP280;64127;51.488;5.462;2023-04-01T22:00:19;100633.13;;;12.17
75431;BMP280;64127;51.488;5.462;2023-04-01T22:06:22;100652.41;;;12.18
75431;BMP280;64127;51.488;5.462;2023-04-01T22:09:23;100654.06;;;12.14
75431;BMP280;64127;51.488;5.462;2023-04-01T22:12:17;100669.75;;;12.13
75431;BMP280;64127;51.488;5.462;2023-04-01T22:18:17;100665.75;;;11.97
75431;BMP280;64127;51.488;5.462;2023-04-01T22:21:20;100664.56;;;11.88
75431;BMP280;64127;51.488;5.462;2023-04-01T22:27:00;100684.31;;;12.02
75431;BMP280;64127;51.488;5.462;2023-04-01T22:33:07;100697.44;;;12.02
75431;BMP280;64127;51.488;5.462;2023-04-01T22:36:01;100702.56;;;11.99
75431;BMP280;64127;51.488;5.462;2023-04-01T22:38:51;100708.56;;;11.95
75431;BMP280;64127;51.488;5.462;2023-04-01T22:45:04;100713.41;;;11.83
75431;BMP280;64127;51.488;5.462;2023-04-01T22:54:29;100734.22;;;11.77
75431;BMP280;64127;51.488;5.462;2023-04-01T23:00:36;100746.03;;;11.65
75431;BMP280;64127;51.488;5.462;2023-04-01T23:05:56;100751.28;;;11.65
75431;BMP280;64127;51.488;5.462;2023-04-01T23:09:04;100751.06;;;11.59
75431;BMP280;64127;51.488;5.462;2023-04-01T23:12:10;100759.88;;;11.61
75431;BMP280;64127;51.488;5.462;2023-04-01T23:14:49;100766.41;;;11.71
75431;BMP280;64127;51.488;5.462;2023-04-01T23:17:34;100772.66;;;11.75
75431;BMP280;64127;51.488;5.462;2023-04-01T23:20:23;100768.94;;;11.69
75431;BMP280;64127;51.488;5.462;2023-04-01T23:23:18;100764.09;;;11.56
75431;BMP280;64127;51.488;5.462;2023-04-01T23:26:12;100777.31;;;11.59
75431;BMP280;64127;51.488;5.462;2023-04-01T23:28:49;100792.47;;;11.68
75431;BMP280;64127;51.488;5.462;2023-04-01T23:31:40;100795.19;;;11.69
75431;BMP280;64127;51.488;5.462;2023-04-01T23:36:55;100810.00;;;11.67
75431;BMP280;64127;51.488;5.462;2023-04-01T23:39:42;100808.94;;;11.62
75431;BMP280;64127;51.488;5.462;2023-04-01T23:42:25;100812.47;;;11.64
75431;BMP280;64127;51.488;5.462;2023-04-01T23:45:04;100809.59;;;11.57
75431;BMP280;64127;51.488;5.462;2023-04-01T23:47:41;100783.59;;;11.39
75431;BMP280;64127;51.488;5.462;2023-04-01T23:50:23;100823.56;;;11.56
75431;BMP280;64127;51.488;5.462;2023-04-01T23:53:08;100806.13;;;11.34
75431;BMP280;64127;51.488;5.462;2023-04-01T23:55:43;100833.66;;;11.45
75431;BMP280;64127;51.488;5.462;2023-04-01T23:58:24;100852.25;;;11.51
